UPSVAC Airport Information Service

Lynden Pindling International Airport

ICAO: MYNN Country: Bahamas
Latitude: 25.0439 Longitude: -77.4655
Latest Arrival : AMF5102 (KMIA-MYNN) Latest Departure : AMF5103 (MYNN-KMIA)


WX CaptureLIVE
Data provided by noaa.gov | Fetched at 13:06:48

METAR : MYNN 141200Z 06008KT 9999 SCT030 23/17 A3012

TAF : MYNN 140945Z 1412/1512 05012KT 9999 FEW025


Runway Data for MYNN
Data provided by openaviationdata.com

Runway ID Mag Var Hdg Length Elevation Surface ILS Freq ILS Id ILS Slope
9 -6 95° 8318 ft 16 ft Asphalt -- -- --
14 -6 140° 11031 ft 16 ft Asphalt 110.1 IZQA 3
27 -6 275° 8318 ft 16 ft Asphalt -- -- --
32 -6 320° 11031 ft 16 ft Asphalt -- -- --

Lynden Pindling International Airport, Bahamas
Use only for reference purposes



Not for navigational purposes.